createdAt,value
2023-02-11T00:00:42.583Z,19.04
2023-02-11T00:02:31.866Z,19.02
2023-02-11T00:03:52.927Z,19.05
2023-02-11T00:05:15.687Z,19.04
2023-02-11T00:06:43.061Z,19.06
2023-02-11T00:09:57.241Z,19.07
2023-02-11T00:15:15.043Z,19.04
2023-02-11T00:16:39.404Z,19.03
2023-02-11T00:18:26.756Z,19.02
2023-02-11T00:19:49.296Z,19.03
2023-02-11T00:25:19.552Z,19.02
2023-02-11T00:26:40.340Z,18.99
2023-02-11T00:28:17.119Z,19.01
2023-02-11T00:29:38.285Z,18.99
2023-02-11T00:31:21.488Z,18.98
2023-02-11T00:32:45.548Z,19.00
2023-02-11T00:34:11.231Z,19.01
2023-02-11T00:35:42.136Z,19.01
2023-02-11T00:37:11.685Z,18.99
2023-02-11T00:38:53.663Z,18.98
2023-02-11T00:42:39.642Z,18.99
2023-02-11T00:44:01.088Z,18.97
2023-02-11T00:49:24.791Z,18.97
2023-02-11T00:51:38.107Z,18.97
2023-02-11T00:58:19.454Z,18.93
2023-02-11T01:09:21.768Z,18.86
2023-02-11T01:23:41.796Z,18.75
2023-02-11T01:31:07.509Z,18.77
2023-02-11T01:32:28.409Z,18.79
2023-02-11T01:33:49.568Z,18.78
2023-02-11T01:35:16.453Z,18.78
2023-02-11T01:37:45.240Z,18.80
2023-02-11T01:39:09.641Z,18.82
2023-02-11T01:40:39.146Z,18.83
2023-02-11T01:44:16.511Z,18.82
2023-02-11T01:45:52.604Z,18.84
2023-02-11T01:48:04.462Z,18.86
2023-02-11T01:49:36.770Z,18.86
2023-02-11T01:51:03.166Z,18.88
2023-02-11T01:52:45.137Z,18.87
2023-02-11T01:54:20.186Z,18.88
2023-02-11T01:55:43.949Z,18.88
2023-02-11T02:01:01.501Z,18.89
2023-02-11T02:17:54.945Z,18.83
2023-02-11T02:21:17.817Z,18.83
2023-02-11T02:29:04.343Z,18.80
2023-02-11T02:32:50.623Z,18.79
2023-02-11T02:42:20.302Z,18.77
2023-02-11T02:43:57.296Z,18.78
2023-02-11T02:49:34.026Z,18.69
2023-02-11T02:50:34.454Z,18.77
2023-02-11T02:51:04.517Z,18.71
2023-02-11T02:52:31.018Z,18.71
2023-02-11T02:56:00.619Z,18.67
2023-02-11T02:57:29.260Z,18.67
2023-02-11T02:59:07.006Z,18.70
2023-02-11T03:00:33.951Z,18.67
2023-02-11T03:02:00.301Z,18.69
2023-02-11T03:03:28.500Z,18.69
2023-02-11T03:04:54.181Z,18.67
2023-02-11T03:06:21.513Z,18.68
2023-02-11T03:07:46.846Z,18.68
2023-02-11T03:09:14.787Z,18.69
2023-02-11T03:10:37.109Z,18.68
2023-02-11T03:11:58.904Z,18.68
2023-02-11T03:13:21.517Z,18.69
2023-02-11T03:14:46.051Z,18.71
2023-02-11T03:16:08.979Z,18.70
2023-02-11T03:17:30.899Z,18.70
2023-02-11T03:18:56.948Z,18.72
2023-02-11T03:20:19.291Z,18.74
2023-02-11T03:21:41.781Z,18.74
2023-02-11T03:23:04.315Z,18.73
2023-02-11T03:24:29.796Z,18.76
2023-02-11T03:25:53.470Z,18.73
2023-02-11T03:27:18.409Z,18.76
2023-02-11T03:28:43.026Z,18.75
2023-02-11T03:30:10.849Z,18.78
2023-02-11T03:31:34.180Z,18.79
2023-02-11T03:32:57.569Z,18.77
2023-02-11T03:34:23.491Z,18.79
2023-02-11T03:35:50.796Z,18.78
2023-02-11T03:37:15.680Z,18.80
2023-02-11T03:38:38.534Z,18.79
2023-02-11T03:40:03.433Z,18.79
2023-02-11T03:41:24.941Z,18.80
2023-02-11T03:42:47.988Z,18.80
2023-02-11T03:44:09.357Z,18.82
2023-02-11T03:45:33.245Z,18.81
2023-02-11T03:46:54.502Z,18.81
2023-02-11T03:48:17.459Z,18.82
2023-02-11T03:49:39.832Z,18.82
2023-02-11T03:51:02.620Z,18.83
2023-02-11T03:52:26.208Z,18.81
2023-02-11T03:53:51.056Z,18.80
2023-02-11T03:55:17.291Z,18.81
2023-02-11T03:56:40.066Z,18.80
2023-02-11T03:58:01.220Z,18.80
2023-02-11T03:59:22.436Z,18.78
2023-02-11T04:00:45.472Z,18.81
2023-02-11T04:02:06.279Z,18.80
2023-02-11T04:03:26.947Z,18.77
2023-02-11T04:04:47.819Z,18.78
2023-02-11T04:06:08.994Z,18.80
2023-02-11T04:07:30.098Z,18.79
2023-02-11T04:08:50.892Z,18.79
2023-02-11T04:10:14.377Z,18.80
2023-02-11T04:11:35.491Z,18.80
2023-02-11T04:12:56.666Z,18.80
2023-02-11T04:14:19.518Z,18.79
2023-02-11T04:15:40.207Z,18.81
2023-02-11T04:17:00.932Z,18.76
2023-02-11T04:18:21.863Z,18.77
2023-02-11T04:19:42.536Z,18.78
2023-02-11T04:21:03.224Z,18.75
2023-02-11T04:22:23.753Z,18.75
2023-02-11T04:23:44.595Z,18.75
2023-02-11T04:25:06.105Z,18.74
2023-02-11T04:26:31.756Z,18.76
2023-02-11T04:27:52.402Z,18.76
2023-02-11T04:29:13.540Z,18.77
2023-02-11T04:30:34.178Z,18.75
2023-02-11T04:31:55.229Z,18.75
2023-02-11T04:33:15.955Z,18.75
2023-02-11T04:34:36.936Z,18.75
2023-02-11T04:35:57.566Z,18.74
2023-02-11T04:37:20.730Z,18.74
2023-02-11T04:38:41.448Z,18.73
2023-02-11T04:40:02.371Z,18.70
2023-02-11T04:41:26.041Z,18.70
2023-02-11T04:42:51.479Z,18.69
2023-02-11T04:44:12.091Z,18.70
2023-02-11T04:45:33.070Z,18.68
2023-02-11T04:46:54.002Z,18.66
2023-02-11T04:48:15.036Z,18.67
2023-02-11T04:49:35.913Z,18.67
2023-02-11T04:50:58.819Z,18.64
2023-02-11T04:52:21.854Z,18.63
2023-02-11T04:53:42.356Z,18.59
2023-02-11T04:55:05.768Z,18.61
2023-02-11T04:56:29.423Z,18.61
2023-02-11T04:57:53.011Z,18.60
2023-02-11T04:59:13.830Z,18.60
2023-02-11T05:00:34.766Z,18.58
2023-02-11T05:01:55.843Z,18.57
2023-02-11T05:03:17.322Z,18.58
2023-02-11T05:04:38.490Z,18.61
2023-02-11T05:05:59.611Z,18.60
2023-02-11T05:07:20.557Z,18.58
2023-02-11T05:08:41.247Z,18.60
2023-02-11T05:10:01.665Z,18.62
2023-02-11T05:11:23.819Z,18.59
2023-02-11T05:12:44.475Z,18.61
2023-02-11T05:14:07.702Z,18.64
2023-02-11T05:15:28.568Z,18.65
2023-02-11T05:16:49.176Z,18.66
2023-02-11T05:18:10.254Z,18.67
2023-02-11T05:19:31.091Z,18.66
2023-02-11T05:20:52.187Z,18.66
2023-02-11T05:22:12.891Z,18.67
2023-02-11T05:23:36.173Z,18.67
2023-02-11T05:24:56.809Z,18.68
2023-02-11T05:26:17.408Z,18.66
2023-02-11T05:27:38.323Z,18.66
2023-02-11T05:29:01.116Z,18.67
2023-02-11T05:30:24.552Z,18.66
2023-02-11T05:31:45.578Z,18.63
2023-02-11T05:33:08.518Z,18.54
2023-02-11T05:34:29.385Z,18.57
2023-02-11T05:35:50.327Z,18.59
2023-02-11T05:37:13.759Z,18.59
2023-02-11T05:38:35.053Z,18.63
2023-02-11T05:39:58.198Z,18.64
2023-02-11T05:41:18.835Z,18.63
2023-02-11T05:42:42.311Z,18.66
2023-02-11T05:44:05.242Z,18.66
2023-02-11T05:45:30.706Z,18.69
2023-02-11T05:46:53.690Z,18.69
2023-02-11T05:48:14.481Z,18.72
2023-02-11T05:49:35.466Z,18.73
2023-02-11T05:50:56.571Z,18.74
2023-02-11T05:52:17.512Z,18.76
2023-02-11T05:53:41.426Z,18.78
2023-02-11T05:55:02.488Z,18.80
2023-02-11T05:56:23.253Z,18.80
2023-02-11T05:57:44.288Z,18.82
2023-02-11T05:59:05.129Z,18.82
2023-02-11T06:00:26.245Z,18.84
2023-02-11T06:01:49.614Z,18.85
2023-02-11T06:03:10.106Z,18.89
2023-02-11T06:04:30.994Z,18.90
2023-02-11T06:05:52.253Z,18.91
2023-02-11T06:07:13.250Z,18.92
2023-02-11T06:08:33.940Z,18.95
2023-02-11T06:09:57.538Z,18.95
2023-02-11T06:11:18.205Z,18.95
2023-02-11T06:12:38.915Z,18.99
2023-02-11T06:14:01.019Z,18.99
2023-02-11T06:15:22.045Z,18.99
2023-02-11T06:16:42.631Z,19.02
2023-02-11T06:18:05.879Z,19.02
2023-02-11T06:19:29.279Z,19.05
2023-02-11T06:20:52.929Z,19.02
2023-02-11T06:22:15.975Z,19.04
2023-02-11T06:23:36.989Z,19.03
2023-02-11T06:25:01.665Z,19.04
2023-02-11T06:26:25.508Z,19.05
2023-02-11T06:27:46.576Z,19.05
2023-02-11T06:29:07.449Z,19.05
2023-02-11T06:30:28.455Z,19.05
2023-02-11T06:31:49.532Z,19.05
2023-02-11T06:33:13.109Z,19.04
2023-02-11T06:34:33.853Z,19.02
2023-02-11T06:35:57.556Z,19.03
2023-02-11T06:37:18.506Z,19.03
2023-02-11T06:38:39.577Z,19.05
2023-02-11T06:40:02.971Z,19.03
2023-02-11T06:41:23.839Z,19.02
2023-02-11T06:42:44.403Z,19.04
2023-02-11T06:44:07.291Z,19.03
2023-02-11T06:45:28.131Z,19.03
2023-02-11T06:46:51.185Z,19.02
2023-02-11T06:48:14.788Z,19.02
2023-02-11T06:49:35.503Z,19.02
2023-02-11T06:51:01.163Z,19.03
2023-02-11T06:52:21.967Z,19.03
2023-02-11T06:53:46.315Z,19.01
2023-02-11T06:55:06.779Z,19.02
2023-02-11T06:56:27.671Z,19.02
2023-02-11T06:57:48.532Z,19.02
2023-02-11T06:59:09.121Z,19.01
2023-02-11T07:00:30.138Z,19.00
2023-02-11T07:01:50.960Z,18.99
2023-02-11T07:03:14.222Z,19.00
2023-02-11T07:04:37.393Z,18.98
2023-02-11T07:05:58.377Z,18.99
2023-02-11T07:07:21.501Z,18.99
2023-02-11T07:08:42.573Z,18.99
2023-02-11T07:10:06.081Z,18.99
2023-02-11T07:11:29.780Z,18.97
2023-02-11T07:12:50.761Z,18.98
2023-02-11T07:14:13.623Z,18.98
2023-02-11T07:15:34.272Z,18.97
2023-02-11T07:16:55.209Z,18.95
2023-02-11T07:18:20.628Z,18.97
2023-02-11T07:19:41.338Z,18.97
2023-02-11T07:21:04.576Z,18.95
2023-02-11T07:22:25.292Z,18.94
2023-02-11T07:23:46.716Z,18.94
2023-02-11T07:25:07.664Z,18.93
2023-02-11T07:26:28.422Z,18.91
2023-02-11T07:27:49.261Z,18.93
2023-02-11T07:29:10.316Z,18.91
2023-02-11T07:30:31.082Z,18.92
2023-02-11T07:31:52.163Z,18.90
2023-02-11T07:33:13.106Z,18.91
2023-02-11T07:34:36.594Z,18.90
2023-02-11T07:36:00.167Z,18.90
2023-02-11T07:37:23.081Z,18.90
2023-02-11T07:38:44.016Z,18.90
2023-02-11T07:40:05.161Z,18.89
2023-02-11T07:41:26.066Z,18.91
2023-02-11T07:42:47.160Z,18.90
2023-02-11T07:44:08.396Z,18.90
2023-02-11T07:45:32.123Z,18.90
2023-02-11T07:46:53.216Z,18.90
2023-02-11T07:48:13.970Z,18.87
2023-02-11T07:49:37.436Z,18.90
2023-02-11T07:51:04.774Z,18.89
2023-02-11T07:52:25.580Z,18.90
2023-02-11T07:53:48.911Z,18.92
2023-02-11T07:55:09.883Z,18.92
2023-02-11T07:56:31.205Z,18.91
2023-02-11T07:57:51.894Z,18.92
2023-02-11T07:59:12.909Z,18.93
2023-02-11T08:00:34.056Z,18.90
2023-02-11T08:01:54.753Z,18.92
2023-02-11T08:03:17.864Z,18.94
2023-02-11T08:04:41.270Z,18.95
2023-02-11T08:06:04.327Z,18.95
2023-02-11T08:07:25.530Z,18.95
2023-02-11T08:08:46.710Z,18.97
2023-02-11T08:10:07.799Z,18.95
2023-02-11T08:11:30.992Z,18.95
2023-02-11T08:12:54.016Z,18.98
2023-02-11T08:14:14.768Z,18.98
2023-02-11T08:15:37.628Z,18.98
2023-02-11T08:16:58.135Z,18.97
2023-02-11T08:18:19.056Z,18.97
2023-02-11T08:19:42.505Z,18.96
2023-02-11T08:21:04.696Z,18.98
2023-02-11T08:22:27.642Z,18.98
2023-02-11T08:23:51.052Z,18.98
2023-02-11T08:25:11.875Z,18.97
2023-02-11T08:26:35.375Z,18.99
2023-02-11T08:27:55.883Z,19.00
2023-02-11T08:29:16.983Z,18.98
2023-02-11T08:30:37.860Z,18.98
2023-02-11T08:31:58.977Z,19.00
2023-02-11T08:33:20.019Z,18.97
2023-02-11T08:34:43.507Z,18.94
2023-02-11T08:36:08.399Z,18.93
2023-02-11T08:37:33.136Z,18.97
2023-02-11T08:38:58.673Z,18.99
2023-02-11T08:40:25.737Z,18.98
2023-02-11T08:41:47.246Z,18.97
2023-02-11T08:43:08.261Z,18.97
2023-02-11T08:44:30.998Z,18.99
2023-02-11T08:45:54.075Z,18.97
2023-02-11T08:47:14.913Z,18.98
2023-02-11T08:48:36.059Z,19.02
2023-02-11T08:49:59.916Z,19.03
2023-02-11T08:51:21.174Z,19.08
2023-02-11T08:52:41.974Z,19.10
2023-02-11T08:54:02.976Z,19.08
2023-02-11T08:55:26.473Z,19.06
2023-02-11T08:56:50.977Z,19.02
2023-02-11T08:58:11.459Z,19.07
2023-02-11T08:59:32.082Z,19.08
2023-02-11T09:00:53.382Z,19.09
2023-02-11T09:02:14.869Z,19.10
2023-02-11T09:03:35.688Z,19.10
2023-02-11T09:04:59.231Z,18.74
2023-02-11T09:06:20.361Z,17.81
2023-02-11T09:07:41.169Z,16.10
2023-02-11T09:09:01.627Z,14.90
2023-02-11T09:10:22.140Z,13.48
2023-02-11T09:11:43.884Z,12.33
2023-02-11T09:13:05.391Z,11.76
2023-02-11T09:14:27.267Z,12.57
2023-02-11T09:15:47.942Z,13.25
2023-02-11T09:17:08.867Z,13.81
2023-02-11T09:18:29.973Z,14.32
2023-02-11T09:19:51.070Z,14.76
2023-02-11T09:21:16.234Z,15.15
2023-02-11T09:22:36.820Z,15.51
2023-02-11T09:23:59.901Z,15.82
2023-02-11T09:25:20.960Z,16.11
2023-02-11T09:26:42.784Z,16.32
2023-02-11T09:28:03.900Z,16.53
2023-02-11T09:29:24.445Z,16.70
2023-02-11T09:30:45.409Z,16.84
2023-02-11T09:32:09.624Z,16.99
2023-02-11T09:33:30.556Z,17.11
2023-02-11T09:34:51.351Z,17.22
2023-02-11T09:36:15.884Z,17.36
2023-02-11T09:37:37.505Z,17.41
2023-02-11T09:38:59.716Z,17.51
2023-02-11T09:40:23.310Z,17.57
2023-02-11T09:41:59.515Z,17.63
2023-02-11T09:43:22.632Z,17.71
2023-02-11T09:44:46.421Z,17.77
2023-02-11T09:46:10.820Z,17.85
2023-02-11T09:47:33.111Z,17.89
2023-02-11T09:48:54.604Z,17.95
2023-02-11T09:50:17.910Z,18.00
2023-02-11T09:51:46.816Z,18.05
2023-02-11T09:53:13.250Z,18.11
2023-02-11T09:54:37.386Z,18.17
2023-02-11T09:55:59.749Z,18.22
2023-02-11T09:57:28.657Z,18.26
2023-02-11T09:58:49.906Z,18.32
2023-02-11T10:01:57.608Z,18.42
2023-02-11T10:03:26.753Z,18.47
2023-02-11T10:04:57.497Z,18.50
2023-02-11T10:06:25.370Z,18.55
2023-02-11T10:07:55.976Z,18.58
2023-02-11T10:09:41.285Z,18.62
2023-02-11T10:11:06.545Z,18.67
2023-02-11T10:12:36.812Z,18.69
2023-02-11T10:14:01.438Z,18.72
2023-02-11T10:15:27.283Z,18.74
2023-02-11T10:16:53.495Z,18.76
2023-02-11T10:18:26.900Z,18.76
2023-02-11T10:19:59.041Z,18.81
2023-02-11T10:21:24.597Z,18.83
2023-02-11T10:22:47.164Z,18.86
2023-02-11T10:24:12.694Z,18.87
2023-02-11T10:25:35.048Z,18.90
2023-02-11T10:26:56.243Z,18.89
2023-02-11T10:28:26.002Z,18.91
2023-02-11T10:29:50.854Z,18.89
2023-02-11T10:31:36.155Z,18.89
2023-02-11T10:33:08.524Z,18.82
2023-02-11T10:34:29.622Z,18.86
2023-02-11T10:35:51.160Z,18.87
2023-02-11T10:37:13.434Z,18.66
2023-02-11T10:38:45.705Z,18.48
2023-02-11T10:40:12.754Z,18.37
2023-02-11T10:41:37.016Z,18.47
2023-02-11T10:45:06.962Z,18.56
2023-02-11T10:52:19.710Z,18.63
2023-02-11T10:55:49.462Z,18.66
2023-02-11T10:57:20.401Z,18.65
2023-02-11T10:58:44.391Z,18.67
2023-02-11T11:00:25.289Z,18.67
2023-02-11T11:01:48.910Z,18.68
2023-02-11T11:03:17.093Z,18.69
2023-02-11T11:06:43.510Z,18.69
2023-02-11T11:17:19.345Z,18.62
2023-02-11T11:20:54.707Z,18.68
2023-02-11T11:22:23.075Z,18.66
2023-02-11T11:24:04.410Z,18.66
2023-02-11T11:29:52.838Z,18.67
2023-02-11T11:35:25.671Z,18.64
2023-02-11T11:38:50.422Z,18.61
2023-02-11T11:40:22.170Z,18.63
2023-02-11T11:42:01.503Z,18.66
2023-02-11T11:43:31.471Z,18.64
2023-02-11T11:56:17.366Z,18.86
2023-02-11T11:57:41.703Z,18.90
2023-02-11T11:59:33.337Z,18.96
2023-02-11T12:01:14.922Z,18.98
2023-02-11T12:02:45.182Z,18.97
2023-02-11T12:04:31.662Z,19.05
2023-02-11T12:13:42.614Z,19.42
2023-02-11T12:15:26.374Z,19.34
2023-02-11T12:17:07.218Z,19.27
2023-02-11T12:18:47.364Z,19.20
2023-02-11T12:23:29.654Z,19.12
2023-02-11T12:45:00.936Z,19.16
2023-02-11T13:31:45.268Z,18.68
2023-02-11T13:45:02.700Z,18.66
2023-02-11T13:48:42.823Z,18.64
2023-02-11T13:50:30.136Z,18.62
2023-02-11T13:52:00.130Z,18.65
2023-02-11T13:54:29.992Z,18.62
2023-02-11T14:23:27.351Z,18.64
2023-02-11T14:27:52.893Z,18.64
2023-02-11T14:28:48.805Z,18.65
2023-02-11T14:30:46.994Z,18.64
2023-02-11T14:34:07.370Z,18.62
2023-02-11T14:35:33.577Z,18.63
2023-02-11T14:37:38.758Z,18.62
2023-02-11T14:41:05.990Z,18.64
2023-02-11T14:42:36.995Z,18.62
2023-02-11T15:41:44.510Z,18.60
2023-02-11T16:31:02.507Z,18.55
2023-02-11T16:32:48.405Z,18.55
2023-02-11T16:46:48.830Z,18.56
2023-02-11T16:48:16.562Z,18.57
2023-02-11T16:49:59.880Z,18.55
2023-02-11T16:51:27.004Z,18.55
2023-02-11T17:16:52.936Z,18.56
2023-02-11T17:18:16.951Z,18.57
2023-02-11T17:19:43.884Z,18.60
2023-02-11T17:21:06.374Z,18.64
2023-02-11T17:24:23.464Z,18.69
2023-02-11T17:25:55.235Z,18.68
2023-02-11T17:27:16.185Z,18.73
2023-02-11T17:28:42.824Z,18.73
2023-02-11T17:30:07.718Z,18.73
2023-02-11T17:31:29.413Z,18.73
2023-02-11T17:32:52.919Z,18.77
2023-02-11T17:34:24.950Z,18.76
2023-02-11T17:35:46.456Z,18.76
2023-02-11T17:37:08.011Z,18.82
2023-02-11T17:38:29.422Z,18.80
2023-02-11T17:39:50.740Z,18.82
2023-02-11T17:41:18.082Z,18.83
2023-02-11T17:42:42.180Z,18.84
2023-02-11T17:44:03.284Z,18.89
2023-02-11T17:45:26.736Z,18.89
2023-02-11T17:46:47.771Z,18.89
2023-02-11T17:48:13.754Z,18.87
2023-02-11T17:49:34.753Z,18.86
2023-02-11T17:50:56.342Z,18.84
2023-02-11T17:52:19.552Z,18.86
2023-02-11T17:53:41.095Z,18.87
2023-02-11T17:55:03.606Z,18.91
2023-02-11T17:56:50.377Z,18.91
2023-02-11T17:58:12.000Z,18.91
2023-02-11T17:59:32.848Z,18.88
2023-02-11T18:00:57.867Z,18.90
2023-02-11T18:02:34.000Z,18.89
2023-02-11T18:04:00.480Z,18.86
2023-02-11T18:05:22.253Z,18.86
2023-02-11T18:06:47.267Z,18.87
2023-02-11T18:08:09.007Z,18.87
2023-02-11T18:09:30.571Z,18.88
2023-02-11T18:10:55.003Z,18.86
2023-02-11T18:12:20.095Z,18.87
2023-02-11T18:14:05.776Z,18.89
2023-02-11T18:15:34.788Z,18.90
2023-02-11T18:16:56.309Z,18.90
2023-02-11T18:18:30.458Z,18.90
2023-02-11T18:19:55.256Z,18.89
2023-02-11T18:21:22.970Z,18.92
2023-02-11T18:30:32.071Z,18.90
2023-02-11T18:33:44.153Z,18.87
2023-02-11T18:35:14.683Z,18.82
2023-02-11T18:38:32.273Z,18.79
2023-02-11T18:39:56.511Z,18.81
2023-02-11T18:41:22.207Z,18.79
2023-02-11T18:42:55.696Z,18.77
2023-02-11T18:44:20.373Z,18.79
2023-02-11T18:45:49.395Z,18.79
2023-02-11T18:48:59.802Z,18.76
2023-02-11T18:50:34.092Z,18.75
2023-02-11T18:53:55.931Z,18.73
2023-02-11T18:55:17.803Z,18.70
2023-02-11T19:16:04.567Z,18.61
2023-02-11T19:21:23.468Z,18.63
2023-02-11T19:22:45.086Z,18.60
2023-02-11T19:28:28.043Z,18.57
2023-02-11T19:29:43.579Z,18.66
2023-02-11T19:29:49.197Z,18.55
2023-02-11T19:31:13.155Z,18.57
2023-02-11T19:34:19.774Z,18.58
2023-02-11T19:35:55.852Z,18.59
2023-02-11T19:37:31.893Z,18.59
2023-02-11T19:38:54.082Z,18.60
2023-02-11T19:40:20.215Z,18.59
2023-02-11T19:41:41.308Z,18.59
2023-02-11T19:43:02.639Z,18.59
2023-02-11T19:44:28.881Z,18.60
2023-02-11T19:45:54.068Z,18.60
2023-02-11T19:47:23.588Z,18.59
2023-02-11T19:50:50.447Z,18.59
2023-02-11T19:52:12.116Z,18.58
2023-02-11T19:53:48.144Z,18.58
2023-02-11T20:01:06.447Z,18.57
2023-02-11T20:02:30.133Z,18.61
2023-02-11T20:03:25.403Z,18.56
2023-02-11T20:04:01.910Z,18.65
2023-02-11T20:05:23.346Z,18.70
2023-02-11T20:07:03.052Z,18.70
2023-02-11T20:12:11.760Z,18.72
2023-02-11T20:13:33.101Z,18.69
2023-02-11T20:16:54.207Z,18.74
2023-02-11T20:18:35.880Z,18.71
2023-02-11T20:20:20.055Z,18.71
2023-02-11T20:22:01.618Z,18.70
2023-02-11T20:23:25.844Z,18.73
2023-02-11T20:28:24.839Z,18.72
2023-02-11T20:29:47.574Z,18.77
2023-02-11T20:31:26.387Z,18.73
2023-02-11T20:32:47.466Z,18.78
2023-02-11T20:40:06.842Z,18.77
2023-02-11T20:41:37.804Z,18.80
2023-02-11T20:43:13.946Z,18.79
2023-02-11T20:44:59.012Z,18.81
2023-02-11T20:46:21.250Z,18.81
2023-02-11T20:47:44.356Z,18.81
2023-02-11T20:49:05.803Z,18.81
2023-02-11T20:50:26.724Z,18.79
2023-02-11T20:51:53.294Z,18.81
2023-02-11T20:53:14.397Z,18.80
2023-02-11T20:58:43.856Z,18.75
2023-02-11T21:00:12.030Z,18.79
2023-02-11T21:07:07.484Z,18.75
2023-02-11T21:08:28.706Z,18.73
2023-02-11T21:09:49.856Z,18.71
2023-02-11T21:11:14.135Z,18.69
2023-02-11T21:14:43.852Z,18.61
2023-02-11T21:16:23.890Z,18.62
2023-02-11T21:17:48.697Z,18.62
2023-02-11T21:21:10.709Z,18.62
2023-02-11T21:22:46.897Z,18.60
2023-02-11T21:24:11.485Z,18.61
2023-02-11T21:29:53.733Z,18.55
2023-02-11T21:31:23.361Z,18.55
2023-02-11T21:34:55.125Z,18.56
2023-02-11T21:38:07.369Z,18.57
2023-02-11T21:39:28.412Z,18.56
2023-02-11T21:41:02.073Z,18.56
2023-02-11T21:42:23.223Z,18.55
2023-02-11T21:43:45.519Z,18.58
2023-02-11T21:45:09.744Z,18.58
2023-02-11T21:46:34.778Z,18.54
2023-02-11T21:50:05.094Z,18.56
2023-02-11T21:51:29.441Z,18.56
2023-02-11T21:55:02.562Z,18.57
2023-02-11T21:58:19.819Z,18.55
2023-02-11T21:59:40.972Z,18.57
2023-02-11T22:01:02.382Z,18.57
2023-02-11T22:02:26.375Z,18.55
2023-02-11T22:06:08.692Z,18.57
2023-02-11T22:09:44.136Z,18.58
2023-02-11T22:16:30.410Z,18.55
2023-02-11T22:18:13.726Z,18.56
2023-02-11T22:19:40.108Z,18.56
2023-02-11T22:22:43.213Z,18.52
2023-02-11T22:24:08.252Z,18.56
2023-02-11T22:25:32.617Z,18.57
2023-02-11T22:28:42.598Z,18.56
2023-02-11T22:30:03.906Z,18.55
2023-02-11T22:33:12.735Z,18.56
2023-02-11T22:35:01.852Z,18.57
2023-02-11T22:36:29.196Z,18.58
2023-02-11T22:37:50.467Z,18.58
2023-02-11T22:39:12.425Z,18.56
2023-02-11T22:40:33.795Z,18.56
2023-02-11T22:41:55.047Z,18.57
2023-02-11T22:43:23.410Z,18.57
2023-02-11T22:44:47.501Z,18.57
2023-02-11T22:46:14.011Z,18.58
2023-02-11T22:47:35.175Z,18.57
2023-02-11T22:48:57.667Z,18.57
2023-02-11T22:50:23.256Z,18.58
2023-02-11T22:51:47.541Z,18.56
2023-02-11T22:55:10.241Z,18.57
2023-02-11T22:56:32.075Z,18.56
2023-02-11T22:57:55.918Z,18.54
2023-02-11T22:59:31.647Z,18.54
2023-02-11T23:02:43.779Z,18.54
2023-02-11T23:04:09.198Z,18.53
2023-02-11T23:05:59.995Z,18.55
2023-02-11T23:07:26.799Z,18.55
2023-02-11T23:08:48.398Z,18.55
2023-02-11T23:10:13.592Z,18.53
2023-02-11T23:11:36.229Z,18.56
2023-02-11T23:12:57.541Z,18.55
2023-02-11T23:14:33.523Z,18.57
2023-02-11T23:15:54.888Z,18.56
2023-02-11T23:17:36.982Z,18.55
2023-02-11T23:19:12.826Z,18.54
2023-02-11T23:20:34.105Z,18.54
2023-02-11T23:22:17.861Z,18.53
2023-02-11T23:23:57.191Z,18.54
2023-02-11T23:25:21.279Z,18.54
2023-02-11T23:26:45.191Z,18.54
2023-02-11T23:28:12.387Z,18.54
2023-02-11T23:29:34.364Z,18.54
2023-02-11T23:30:55.821Z,18.55
2023-02-11T23:32:20.097Z,18.52
2023-02-11T23:35:40.585Z,18.51
2023-02-11T23:37:37.627Z,18.53
2023-02-11T23:39:02.008Z,18.54
2023-02-11T23:40:27.901Z,18.53
2023-02-11T23:42:31.805Z,18.51
2023-02-11T23:44:03.597Z,18.50
2023-02-11T23:45:31.546Z,18.53
2023-02-11T23:46:52.310Z,18.56
2023-02-11T23:48:15.721Z,18.55
2023-02-11T23:51:28.120Z,18.53
2023-02-11T23:52:49.486Z,18.52
2023-02-11T23:54:23.060Z,18.53
2023-02-11T23:57:50.774Z,18.51
2023-02-11T23:59:11.853Z,18.51
